sensor_id;sensor_type;location;lat;lon;timestamp;P1;durP1;ratioP1;P2;durP2;ratioP2
16804;SDS011;8520;50.102;20.010;2023-08-08T00:00:54;78.80;;;74.87;;
16804;SDS011;8520;50.102;20.010;2023-08-08T00:03:22;78.90;;;74.77;;
16804;SDS011;8520;50.102;20.010;2023-08-08T00:05:50;78.53;;;74.60;;
16804;SDS011;8520;50.102;20.010;2023-08-08T00:08:18;78.67;;;74.80;;
16804;SDS011;8520;50.102;20.010;2023-08-08T00:10:45;78.10;;;74.23;;
16804;SDS011;8520;50.102;20.010;2023-08-08T00:13:13;77.20;;;73.40;;
16804;SDS011;8520;50.102;20.010;2023-08-08T00:15:41;77.23;;;73.43;;
16804;SDS011;8520;50.102;20.010;2023-08-08T00:18:11;76.63;;;72.83;;
16804;SDS011;8520;50.102;20.010;2023-08-08T00:20:39;77.47;;;73.57;;
16804;SDS011;8520;50.102;20.010;2023-08-08T00:23:07;77.53;;;73.73;;
16804;SDS011;8520;50.102;20.010;2023-08-08T00:25:35;76.37;;;72.67;;
16804;SDS011;8520;50.102;20.010;2023-08-08T00:28:03;76.23;;;72.33;;
16804;SDS011;8520;50.102;20.010;2023-08-08T00:30:31;76.07;;;72.37;;
16804;SDS011;8520;50.102;20.010;2023-08-08T00:32:59;76.83;;;72.90;;
16804;SDS011;8520;50.102;20.010;2023-08-08T00:35:28;76.27;;;72.57;;
16804;SDS011;8520;50.102;20.010;2023-08-08T00:37:56;77.33;;;73.53;;
16804;SDS011;8520;50.102;20.010;2023-08-08T00:40:24;76.30;;;72.50;;
16804;SDS011;8520;50.102;20.010;2023-08-08T00:42:52;75.60;;;72.00;;
16804;SDS011;8520;50.102;20.010;2023-08-08T00:45:20;74.97;;;71.37;;
16804;SDS011;8520;50.102;20.010;2023-08-08T00:47:48;73.67;;;70.07;;
16804;SDS011;8520;50.102;20.010;2023-08-08T00:50:16;73.03;;;69.53;;
16804;SDS011;8520;50.102;20.010;2023-08-08T00:52:46;72.47;;;68.90;;
16804;SDS011;8520;50.102;20.010;2023-08-08T00:55:15;72.37;;;68.90;;
16804;SDS011;8520;50.102;20.010;2023-08-08T00:57:43;71.97;;;68.57;;
16804;SDS011;8520;50.102;20.010;2023-08-08T01:00:11;72.00;;;68.30;;
16804;SDS011;8520;50.102;20.010;2023-08-08T01:02:39;71.80;;;68.30;;
16804;SDS011;8520;50.102;20.010;2023-08-08T01:05:08;71.57;;;68.07;;
16804;SDS011;8520;50.102;20.010;2023-08-08T01:07:37;70.97;;;67.57;;
16804;SDS011;8520;50.102;20.010;2023-08-08T01:10:08;71.10;;;67.60;;
16804;SDS011;8520;50.102;20.010;2023-08-08T01:12:39;70.57;;;67.20;;
16804;SDS011;8520;50.102;20.010;2023-08-08T01:15:09;71.47;;;67.87;;
16804;SDS011;8520;50.102;20.010;2023-08-08T01:17:37;71.10;;;67.70;;
16804;SDS011;8520;50.102;20.010;2023-08-08T01:20:06;71.97;;;68.47;;
16804;SDS011;8520;50.102;20.010;2023-08-08T01:22:36;72.07;;;68.57;;
16804;SDS011;8520;50.102;20.010;2023-08-08T01:25:05;73.00;;;69.50;;
16804;SDS011;8520;50.102;20.010;2023-08-08T01:27:34;73.07;;;69.40;;
16804;SDS011;8520;50.102;20.010;2023-08-08T01:30:02;74.00;;;70.30;;
16804;SDS011;8520;50.102;20.010;2023-08-08T01:32:31;74.07;;;70.47;;
16804;SDS011;8520;50.102;20.010;2023-08-08T01:34:59;73.80;;;70.17;;
16804;SDS011;8520;50.102;20.010;2023-08-08T01:37:29;74.13;;;70.27;;
16804;SDS011;8520;50.102;20.010;2023-08-08T01:39:58;73.50;;;69.90;;
16804;SDS011;8520;50.102;20.010;2023-08-08T01:42:28;72.27;;;68.67;;
16804;SDS011;8520;50.102;20.010;2023-08-08T01:44:56;72.53;;;68.93;;
16804;SDS011;8520;50.102;20.010;2023-08-08T01:47:24;71.20;;;67.80;;
16804;SDS011;8520;50.102;20.010;2023-08-08T01:49:52;71.50;;;67.70;;
16804;SDS011;8520;50.102;20.010;2023-08-08T01:52:20;70.97;;;67.57;;
16804;SDS011;8520;50.102;20.010;2023-08-08T01:54:49;71.20;;;67.80;;
16804;SDS011;8520;50.102;20.010;2023-08-08T01:57:17;71.17;;;67.63;;
16804;SDS011;8520;50.102;20.010;2023-08-08T01:59:46;70.50;;;67.10;;
16804;SDS011;8520;50.102;20.010;2023-08-08T02:02:14;71.37;;;67.87;;
16804;SDS011;8520;50.102;20.010;2023-08-08T02:04:44;71.60;;;68.00;;
16804;SDS011;8520;50.102;20.010;2023-08-08T02:07:12;71.40;;;67.87;;
16804;SDS011;8520;50.102;20.010;2023-08-08T02:09:40;71.00;;;67.60;;
16804;SDS011;8520;50.102;20.010;2023-08-08T02:12:08;70.47;;;67.07;;
16804;SDS011;8520;50.102;20.010;2023-08-08T02:14:36;70.57;;;67.17;;
16804;SDS011;8520;50.102;20.010;2023-08-08T02:17:05;71.00;;;67.40;;
16804;SDS011;8520;50.102;20.010;2023-08-08T02:19:33;70.07;;;66.53;;
16804;SDS011;8520;50.102;20.010;2023-08-08T02:22:02;69.70;;;66.10;;
16804;SDS011;8520;50.102;20.010;2023-08-08T02:24:29;68.73;;;65.47;;
16804;SDS011;8520;50.102;20.010;2023-08-08T02:26:57;68.70;;;65.40;;
16804;SDS011;8520;50.102;20.010;2023-08-08T02:29:25;68.53;;;65.33;;
16804;SDS011;8520;50.102;20.010;2023-08-08T02:31:53;68.30;;;65.10;;
16804;SDS011;8520;50.102;20.010;2023-08-08T02:34:22;67.40;;;64.20;;
16804;SDS011;8520;50.102;20.010;2023-08-08T02:36:50;66.97;;;63.60;;
16804;SDS011;8520;50.102;20.010;2023-08-08T02:39:18;65.23;;;62.07;;
16804;SDS011;8520;50.102;20.010;2023-08-08T02:41:46;64.27;;;61.23;;
16804;SDS011;8520;50.102;20.010;2023-08-08T02:44:15;64.10;;;61.07;;
16804;SDS011;8520;50.102;20.010;2023-08-08T02:46:44;63.60;;;60.70;;
16804;SDS011;8520;50.102;20.010;2023-08-08T02:49:12;64.03;;;61.07;;
16804;SDS011;8520;50.102;20.010;2023-08-08T02:51:41;64.83;;;61.83;;
16804;SDS011;8520;50.102;20.010;2023-08-08T02:54:10;65.63;;;62.43;;
16804;SDS011;8520;50.102;20.010;2023-08-08T02:56:40;66.43;;;63.23;;
16804;SDS011;8520;50.102;20.010;2023-08-08T02:59:09;66.37;;;63.07;;
16804;SDS011;8520;50.102;20.010;2023-08-08T03:01:37;66.70;;;63.43;;
16804;SDS011;8520;50.102;20.010;2023-08-08T03:04:21;66.73;;;63.63;;
16804;SDS011;8520;50.102;20.010;2023-08-08T03:06:50;67.53;;;64.27;;
16804;SDS011;8520;50.102;20.010;2023-08-08T03:09:18;67.63;;;64.30;;
16804;SDS011;8520;50.102;20.010;2023-08-08T03:11:46;68.17;;;64.80;;
16804;SDS011;8520;50.102;20.010;2023-08-08T03:14:15;68.10;;;64.87;;
16804;SDS011;8520;50.102;20.010;2023-08-08T03:16:43;67.70;;;64.47;;
16804;SDS011;8520;50.102;20.010;2023-08-08T03:19:11;68.10;;;64.90;;
16804;SDS011;8520;50.102;20.010;2023-08-08T03:21:39;69.47;;;65.97;;
16804;SDS011;8520;50.102;20.010;2023-08-08T03:24:09;69.20;;;65.90;;
16804;SDS011;8520;50.102;20.010;2023-08-08T03:26:37;69.83;;;66.43;;
16804;SDS011;8520;50.102;20.010;2023-08-08T03:29:05;70.10;;;66.50;;
16804;SDS011;8520;50.102;20.010;2023-08-08T03:31:41;71.47;;;67.97;;
16804;SDS011;8520;50.102;20.010;2023-08-08T03:34:11;70.57;;;67.17;;
16804;SDS011;8520;50.102;20.010;2023-08-08T03:36:41;70.03;;;66.63;;
16804;SDS011;8520;50.102;20.010;2023-08-08T03:39:11;71.30;;;67.73;;
16804;SDS011;8520;50.102;20.010;2023-08-08T03:41:39;72.10;;;68.50;;
16804;SDS011;8520;50.102;20.010;2023-08-08T03:44:07;72.93;;;69.23;;
16804;SDS011;8520;50.102;20.010;2023-08-08T03:46:35;73.40;;;69.60;;
16804;SDS011;8520;50.102;20.010;2023-08-08T03:49:03;75.13;;;71.00;;
16804;SDS011;8520;50.102;20.010;2023-08-08T03:51:31;75.07;;;71.33;;
16804;SDS011;8520;50.102;20.010;2023-08-08T03:53:59;74.87;;;71.07;;
16804;SDS011;8520;50.102;20.010;2023-08-08T03:56:28;74.97;;;71.30;;
16804;SDS011;8520;50.102;20.010;2023-08-08T03:58:57;75.97;;;71.97;;
16804;SDS011;8520;50.102;20.010;2023-08-08T04:01:25;75.10;;;71.50;;
16804;SDS011;8520;50.102;20.010;2023-08-08T04:03:54;75.50;;;71.70;;
16804;SDS011;8520;50.102;20.010;2023-08-08T04:06:22;75.03;;;71.23;;
16804;SDS011;8520;50.102;20.010;2023-08-08T04:08:50;75.53;;;71.73;;
16804;SDS011;8520;50.102;20.010;2023-08-08T04:11:18;73.70;;;69.90;;
16804;SDS011;8520;50.102;20.010;2023-08-08T04:13:47;73.50;;;69.90;;
16804;SDS011;8520;50.102;20.010;2023-08-08T04:16:15;73.57;;;69.83;;
16804;SDS011;8520;50.102;20.010;2023-08-08T04:18:43;72.97;;;69.37;;
16804;SDS011;8520;50.102;20.010;2023-08-08T04:21:11;70.97;;;67.57;;
16804;SDS011;8520;50.102;20.010;2023-08-08T04:23:39;69.80;;;66.50;;
16804;SDS011;8520;50.102;20.010;2023-08-08T04:26:07;68.60;;;65.30;;
16804;SDS011;8520;50.102;20.010;2023-08-08T04:28:35;68.13;;;64.53;;
16804;SDS011;8520;50.102;20.010;2023-08-08T04:31:04;66.93;;;63.60;;
16804;SDS011;8520;50.102;20.010;2023-08-08T04:33:32;65.83;;;62.40;;
16804;SDS011;8520;50.102;20.010;2023-08-08T04:36:00;65.20;;;62.20;;
16804;SDS011;8520;50.102;20.010;2023-08-08T04:38:28;64.97;;;61.80;;
16804;SDS011;8520;50.102;20.010;2023-08-08T04:40:56;64.70;;;61.57;;
16804;SDS011;8520;50.102;20.010;2023-08-08T04:43:24;63.97;;;60.70;;
16804;SDS011;8520;50.102;20.010;2023-08-08T04:45:51;62.77;;;59.63;;
16804;SDS011;8520;50.102;20.010;2023-08-08T04:48:21;60.93;;;57.70;;
16804;SDS011;8520;50.102;20.010;2023-08-08T04:50:49;57.50;;;54.80;;
16804;SDS011;8520;50.102;20.010;2023-08-08T04:53:16;54.87;;;52.40;;
16804;SDS011;8520;50.102;20.010;2023-08-08T04:55:44;52.13;;;49.87;;
16804;SDS011;8520;50.102;20.010;2023-08-08T04:58:12;50.57;;;48.13;;
16804;SDS011;8520;50.102;20.010;2023-08-08T05:00:40;47.50;;;45.40;;
16804;SDS011;8520;50.102;20.010;2023-08-08T05:03:08;44.27;;;41.97;;
16804;SDS011;8520;50.102;20.010;2023-08-08T05:05:37;41.30;;;39.50;;
16804;SDS011;8520;50.102;20.010;2023-08-08T05:08:07;40.07;;;38.37;;
16804;SDS011;8520;50.102;20.010;2023-08-08T05:10:48;38.07;;;36.47;;
16804;SDS011;8520;50.102;20.010;2023-08-08T05:13:19;36.40;;;34.90;;
16804;SDS011;8520;50.102;20.010;2023-08-08T05:15:47;35.57;;;34.07;;
16804;SDS011;8520;50.102;20.010;2023-08-08T05:18:15;35.70;;;34.17;;
16804;SDS011;8520;50.102;20.010;2023-08-08T05:20:44;35.60;;;34.10;;
16804;SDS011;8520;50.102;20.010;2023-08-08T05:23:12;35.80;;;34.23;;
16804;SDS011;8520;50.102;20.010;2023-08-08T05:25:40;35.80;;;34.13;;
16804;SDS011;8520;50.102;20.010;2023-08-08T05:28:08;33.43;;;31.93;;
16804;SDS011;8520;50.102;20.010;2023-08-08T05:30:36;32.10;;;30.52;;
16804;SDS011;8520;50.102;20.010;2023-08-08T05:33:04;29.73;;;28.48;;
16804;SDS011;8520;50.102;20.010;2023-08-08T05:35:32;30.97;;;29.67;;
16804;SDS011;8520;50.102;20.010;2023-08-08T05:38:01;27.60;;;26.35;;
16804;SDS011;8520;50.102;20.010;2023-08-08T05:40:30;24.67;;;23.58;;
16804;SDS011;8520;50.102;20.010;2023-08-08T05:42:57;21.63;;;20.63;;
16804;SDS011;8520;50.102;20.010;2023-08-08T05:45:25;21.50;;;20.30;;
16804;SDS011;8520;50.102;20.010;2023-08-08T05:47:53;20.92;;;19.90;;
16804;SDS011;8520;50.102;20.010;2023-08-08T05:50:23;19.85;;;18.95;;
16804;SDS011;8520;50.102;20.010;2023-08-08T05:52:51;18.08;;;17.30;;
16804;SDS011;8520;50.102;20.010;2023-08-08T05:55:20;17.27;;;16.58;;
16804;SDS011;8520;50.102;20.010;2023-08-08T05:57:48;17.73;;;17.00;;
16804;SDS011;8520;50.102;20.010;2023-08-08T06:00:16;18.27;;;17.40;;
16804;SDS011;8520;50.102;20.010;2023-08-08T06:02:44;18.47;;;17.77;;
16804;SDS011;8520;50.102;20.010;2023-08-08T06:05:12;18.20;;;17.42;;
16804;SDS011;8520;50.102;20.010;2023-08-08T06:07:40;18.40;;;17.65;;
16804;SDS011;8520;50.102;20.010;2023-08-08T06:10:08;17.65;;;16.88;;
16804;SDS011;8520;50.102;20.010;2023-08-08T06:12:37;16.15;;;15.55;;
16804;SDS011;8520;50.102;20.010;2023-08-08T06:15:06;17.40;;;16.60;;
16804;SDS011;8520;50.102;20.010;2023-08-08T06:17:35;17.98;;;17.17;;
16804;SDS011;8520;50.102;20.010;2023-08-08T06:20:04;18.33;;;17.42;;
16804;SDS011;8520;50.102;20.010;2023-08-08T06:22:33;19.10;;;18.30;;
16804;SDS011;8520;50.102;20.010;2023-08-08T06:25:01;18.92;;;18.02;;
16804;SDS011;8520;50.102;20.010;2023-08-08T06:27:30;18.77;;;17.73;;
16804;SDS011;8520;50.102;20.010;2023-08-08T06:29:59;16.38;;;15.73;;
16804;SDS011;8520;50.102;20.010;2023-08-08T06:32:27;16.35;;;15.45;;
16804;SDS011;8520;50.102;20.010;2023-08-08T06:34:55;14.57;;;13.82;;
16804;SDS011;8520;50.102;20.010;2023-08-08T06:37:23;13.27;;;12.68;;
16804;SDS011;8520;50.102;20.010;2023-08-08T06:39:51;13.55;;;12.75;;
16804;SDS011;8520;50.102;20.010;2023-08-08T06:42:18;13.57;;;12.98;;
16804;SDS011;8520;50.102;20.010;2023-08-08T06:44:54;13.45;;;12.65;;
16804;SDS011;8520;50.102;20.010;2023-08-08T06:47:23;12.95;;;12.35;;
16804;SDS011;8520;50.102;20.010;2023-08-08T06:49:51;12.68;;;12.07;;
16804;SDS011;8520;50.102;20.010;2023-08-08T06:52:19;12.65;;;11.95;;
16804;SDS011;8520;50.102;20.010;2023-08-08T06:54:47;12.35;;;11.85;;
16804;SDS011;8520;50.102;20.010;2023-08-08T06:57:15;11.38;;;10.88;;
16804;SDS011;8520;50.102;20.010;2023-08-08T06:59:43;11.30;;;10.70;;
16804;SDS011;8520;50.102;20.010;2023-08-08T07:02:11;10.90;;;10.40;;
16804;SDS011;8520;50.102;20.010;2023-08-08T07:04:41;11.65;;;10.88;;
16804;SDS011;8520;50.102;20.010;2023-08-08T07:07:09;11.35;;;10.75;;
16804;SDS011;8520;50.102;20.010;2023-08-08T07:09:37;12.10;;;11.35;;
16804;SDS011;8520;50.102;20.010;2023-08-08T07:12:05;11.93;;;11.23;;
16804;SDS011;8520;50.102;20.010;2023-08-08T07:14:33;10.50;;;9.98;;
16804;SDS011;8520;50.102;20.010;2023-08-08T07:17:01;9.90;;;9.40;;
16804;SDS011;8520;50.102;20.010;2023-08-08T07:19:30;10.23;;;9.63;;
16804;SDS011;8520;50.102;20.010;2023-08-08T07:21:59;9.20;;;8.60;;
16804;SDS011;8520;50.102;20.010;2023-08-08T07:24:27;8.90;;;8.40;;
16804;SDS011;8520;50.102;20.010;2023-08-08T07:26:56;9.05;;;8.55;;
16804;SDS011;8520;50.102;20.010;2023-08-08T07:29:24;8.65;;;8.15;;
16804;SDS011;8520;50.102;20.010;2023-08-08T07:31:52;7.38;;;6.97;;
16804;SDS011;8520;50.102;20.010;2023-08-08T07:34:20;8.35;;;7.85;;
16804;SDS011;8520;50.102;20.010;2023-08-08T07:36:48;8.85;;;8.30;;
16804;SDS011;8520;50.102;20.010;2023-08-08T07:39:17;7.88;;;7.38;;
16804;SDS011;8520;50.102;20.010;2023-08-08T07:41:46;5.93;;;5.53;;
16804;SDS011;8520;50.102;20.010;2023-08-08T07:44:14;6.00;;;5.70;;
16804;SDS011;8520;50.102;20.010;2023-08-08T07:46:43;5.50;;;5.20;;
16804;SDS011;8520;50.102;20.010;2023-08-08T07:49:11;5.55;;;5.25;;
16804;SDS011;8520;50.102;20.010;2023-08-08T07:51:39;5.40;;;5.10;;
16804;SDS011;8520;50.102;20.010;2023-08-08T07:54:07;5.05;;;4.65;;
16804;SDS011;8520;50.102;20.010;2023-08-08T07:56:38;4.72;;;4.38;;
16804;SDS011;8520;50.102;20.010;2023-08-08T07:59:06;4.28;;;3.97;;
16804;SDS011;8520;50.102;20.010;2023-08-08T08:01:34;4.70;;;4.10;;
16804;SDS011;8520;50.102;20.010;2023-08-08T08:04:03;4.40;;;4.00;;
16804;SDS011;8520;50.102;20.010;2023-08-08T08:06:31;4.63;;;3.30;;
16804;SDS011;8520;50.102;20.010;2023-08-08T08:08:59;4.07;;;3.65;;
16804;SDS011;8520;50.102;20.010;2023-08-08T08:11:27;3.85;;;3.55;;
16804;SDS011;8520;50.102;20.010;2023-08-08T08:13:56;4.38;;;3.97;;
16804;SDS011;8520;50.102;20.010;2023-08-08T08:16:24;4.10;;;3.80;;
16804;SDS011;8520;50.102;20.010;2023-08-08T08:18:52;3.95;;;3.65;;
16804;SDS011;8520;50.102;20.010;2023-08-08T08:21:20;3.95;;;3.65;;
16804;SDS011;8520;50.102;20.010;2023-08-08T08:23:48;4.03;;;3.83;;
16804;SDS011;8520;50.102;20.010;2023-08-08T08:26:16;4.40;;;4.10;;
16804;SDS011;8520;50.102;20.010;2023-08-08T08:28:44;4.10;;;3.90;;
16804;SDS011;8520;50.102;20.010;2023-08-08T08:31:13;4.05;;;3.75;;
16804;SDS011;8520;50.102;20.010;2023-08-08T08:33:41;3.80;;;3.50;;
16804;SDS011;8520;50.102;20.010;2023-08-08T08:36:09;3.60;;;3.40;;
16804;SDS011;8520;50.102;20.010;2023-08-08T08:38:39;3.20;;;2.97;;
16804;SDS011;8520;50.102;20.010;2023-08-08T08:41:07;2.85;;;2.70;;
16804;SDS011;8520;50.102;20.010;2023-08-08T08:43:36;3.38;;;3.08;;
16804;SDS011;8520;50.102;20.010;2023-08-08T08:46:04;3.20;;;3.00;;
16804;SDS011;8520;50.102;20.010;2023-08-08T08:48:34;3.70;;;3.20;;
16804;SDS011;8520;50.102;20.010;2023-08-08T08:51:02;3.28;;;3.08;;
16804;SDS011;8520;50.102;20.010;2023-08-08T08:53:30;3.08;;;2.88;;
16804;SDS011;8520;50.102;20.010;2023-08-08T08:56:01;3.28;;;2.97;;
16804;SDS011;8520;50.102;20.010;2023-08-08T08:58:30;3.35;;;2.85;;
16804;SDS011;8520;50.102;20.010;2023-08-08T09:00:58;3.30;;;3.10;;
16804;SDS011;8520;50.102;20.010;2023-08-08T09:03:26;3.40;;;3.10;;
16804;SDS011;8520;50.102;20.010;2023-08-08T09:05:55;4.32;;;2.80;;
16804;SDS011;8520;50.102;20.010;2023-08-08T09:08:24;3.40;;;3.20;;
16804;SDS011;8520;50.102;20.010;2023-08-08T09:10:52;3.40;;;3.10;;
16804;SDS011;8520;50.102;20.010;2023-08-08T09:13:20;3.55;;;3.35;;
16804;SDS011;8520;50.102;20.010;2023-08-08T09:15:49;3.47;;;3.20;;
16804;SDS011;8520;50.102;20.010;2023-08-08T09:18:17;3.10;;;2.90;;
16804;SDS011;8520;50.102;20.010;2023-08-08T09:20:46;3.33;;;3.10;;
16804;SDS011;8520;50.102;20.010;2023-08-08T09:23:16;3.75;;;3.53;;
16804;SDS011;8520;50.102;20.010;2023-08-08T09:25:43;3.30;;;3.10;;
16804;SDS011;8520;50.102;20.010;2023-08-08T09:28:12;3.65;;;3.42;;
16804;SDS011;8520;50.102;20.010;2023-08-08T09:30:40;3.50;;;3.30;;
16804;SDS011;8520;50.102;20.010;2023-08-08T09:33:08;3.42;;;3.15;;
16804;SDS011;8520;50.102;20.010;2023-08-08T09:35:37;3.47;;;3.17;;
16804;SDS011;8520;50.102;20.010;2023-08-08T09:38:05;3.97;;;3.78;;
16804;SDS011;8520;50.102;20.010;2023-08-08T09:40:35;2.92;;;2.78;;
16804;SDS011;8520;50.102;20.010;2023-08-08T09:43:03;2.88;;;2.72;;
16804;SDS011;8520;50.102;20.010;2023-08-08T09:45:37;3.10;;;2.90;;
16804;SDS011;8520;50.102;20.010;2023-08-08T09:48:05;3.08;;;2.97;;
16804;SDS011;8520;50.102;20.010;2023-08-08T09:50:34;3.13;;;2.90;;
16804;SDS011;8520;50.102;20.010;2023-08-08T09:53:03;2.72;;;2.63;;
16804;SDS011;8520;50.102;20.010;2023-08-08T09:55:32;3.13;;;3.03;;
16804;SDS011;8520;50.102;20.010;2023-08-08T09:58:02;3.47;;;3.28;;
16804;SDS011;8520;50.102;20.010;2023-08-08T10:00:30;3.22;;;3.03;;
16804;SDS011;8520;50.102;20.010;2023-08-08T10:03:00;3.33;;;3.03;;
16804;SDS011;8520;50.102;20.010;2023-08-08T10:05:29;3.90;;;3.70;;
16804;SDS011;8520;50.102;20.010;2023-08-08T10:07:57;3.28;;;3.08;;
16804;SDS011;8520;50.102;20.010;2023-08-08T10:10:25;3.25;;;3.03;;
16804;SDS011;8520;50.102;20.010;2023-08-08T10:12:53;3.58;;;3.25;;
16804;SDS011;8520;50.102;20.010;2023-08-08T10:15:26;3.13;;;2.90;;
16804;SDS011;8520;50.102;20.010;2023-08-08T10:17:55;3.10;;;2.90;;
16804;SDS011;8520;50.102;20.010;2023-08-08T10:20:24;3.03;;;2.85;;
16804;SDS011;8520;50.102;20.010;2023-08-08T10:22:52;3.10;;;2.90;;
16804;SDS011;8520;50.102;20.010;2023-08-08T10:25:25;3.30;;;3.10;;
16804;SDS011;8520;50.102;20.010;2023-08-08T10:28:03;2.90;;;2.80;;
16804;SDS011;8520;50.102;20.010;2023-08-08T10:30:53;4.18;;;3.80;;
16804;SDS011;8520;50.102;20.010;2023-08-08T10:33:22;3.53;;;3.33;;
16804;SDS011;8520;50.102;20.010;2023-08-08T10:35:51;3.42;;;3.13;;
16804;SDS011;8520;50.102;20.010;2023-08-08T10:38:21;3.58;;;3.28;;
16804;SDS011;8520;50.102;20.010;2023-08-08T10:40:53;3.70;;;3.15;;
16804;SDS011;8520;50.102;20.010;2023-08-08T10:43:25;3.47;;;3.20;;
16804;SDS011;8520;50.102;20.010;2023-08-08T10:45:57;3.67;;;3.38;;
16804;SDS011;8520;50.102;20.010;2023-08-08T10:48:48;3.22;;;3.03;;
16804;SDS011;8520;50.102;20.010;2023-08-08T10:51:16;3.17;;;2.97;;
16804;SDS011;8520;50.102;20.010;2023-08-08T10:53:44;3.85;;;3.65;;
16804;SDS011;8520;50.102;20.010;2023-08-08T10:56:13;3.30;;;3.10;;
16804;SDS011;8520;50.102;20.010;2023-08-08T10:58:41;3.50;;;3.30;;
16804;SDS011;8520;50.102;20.010;2023-08-08T11:01:16;3.17;;;2.97;;
16804;SDS011;8520;50.102;20.010;2023-08-08T11:03:44;2.90;;;2.70;;
16804;SDS011;8520;50.102;20.010;2023-08-08T11:06:12;3.30;;;3.10;;
16804;SDS011;8520;50.102;20.010;2023-08-08T11:08:41;2.97;;;2.78;;
16804;SDS011;8520;50.102;20.010;2023-08-08T11:11:09;3.75;;;3.28;;
16804;SDS011;8520;50.102;20.010;2023-08-08T11:13:37;3.28;;;3.08;;
16804;SDS011;8520;50.102;20.010;2023-08-08T11:16:05;3.30;;;3.00;;
16804;SDS011;8520;50.102;20.010;2023-08-08T11:18:34;3.10;;;2.90;;
16804;SDS011;8520;50.102;20.010;2023-08-08T11:21:09;2.90;;;2.70;;
16804;SDS011;8520;50.102;20.010;2023-08-08T11:23:45;2.70;;;2.50;;
16804;SDS011;8520;50.102;20.010;2023-08-08T11:26:13;3.15;;;2.85;;
16804;SDS011;8520;50.102;20.010;2023-08-08T11:28:48;3.47;;;3.00;;
16804;SDS011;8520;50.102;20.010;2023-08-08T11:31:16;3.33;;;3.03;;
16804;SDS011;8520;50.102;20.010;2023-08-08T11:33:47;3.55;;;3.35;;
16804;SDS011;8520;50.102;20.010;2023-08-08T11:36:15;3.30;;;3.10;;
16804;SDS011;8520;50.102;20.010;2023-08-08T11:38:43;3.10;;;2.90;;
16804;SDS011;8520;50.102;20.010;2023-08-08T11:41:11;3.30;;;3.10;;
16804;SDS011;8520;50.102;20.010;2023-08-08T11:43:39;3.97;;;3.70;;
16804;SDS011;8520;50.102;20.010;2023-08-08T11:46:08;3.47;;;3.28;;
16804;SDS011;8520;50.102;20.010;2023-08-08T11:48:37;3.40;;;3.20;;
16804;SDS011;8520;50.102;20.010;2023-08-08T11:51:06;3.25;;;3.05;;
16804;SDS011;8520;50.102;20.010;2023-08-08T11:53:35;3.95;;;2.85;;
16804;SDS011;8520;50.102;20.010;2023-08-08T11:56:03;3.63;;;3.42;;
16804;SDS011;8520;50.102;20.010;2023-08-08T11:58:32;3.97;;;3.78;;
16804;SDS011;8520;50.102;20.010;2023-08-08T12:01:00;4.28;;;4.07;;
16804;SDS011;8520;50.102;20.010;2023-08-08T12:03:28;4.18;;;3.88;;
16804;SDS011;8520;50.102;20.010;2023-08-08T12:05:56;5.72;;;4.05;;
16804;SDS011;8520;50.102;20.010;2023-08-08T12:08:29;3.67;;;3.47;;
16804;SDS011;8520;50.102;20.010;2023-08-08T12:10:58;3.45;;;3.15;;
16804;SDS011;8520;50.102;20.010;2023-08-08T12:13:28;4.28;;;3.88;;
16804;SDS011;8520;50.102;20.010;2023-08-08T12:15:57;4.18;;;3.92;;
16804;SDS011;8520;50.102;20.010;2023-08-08T12:18:31;4.22;;;3.95;;
16804;SDS011;8520;50.102;20.010;2023-08-08T12:20:59;3.40;;;3.20;;
16804;SDS011;8520;50.102;20.010;2023-08-08T12:23:29;3.40;;;3.30;;
16804;SDS011;8520;50.102;20.010;2023-08-08T12:25:57;3.58;;;3.38;;
16804;SDS011;8520;50.102;20.010;2023-08-08T12:28:25;3.50;;;3.30;;
16804;SDS011;8520;50.102;20.010;2023-08-08T12:30:53;4.25;;;3.10;;
16804;SDS011;8520;50.102;20.010;2023-08-08T12:33:21;3.90;;;3.70;;
16804;SDS011;8520;50.102;20.010;2023-08-08T12:35:49;4.43;;;4.15;;
16804;SDS011;8520;50.102;20.010;2023-08-08T12:38:17;3.97;;;3.50;;
16804;SDS011;8520;50.102;20.010;2023-08-08T12:40:46;3.42;;;3.22;;
16804;SDS011;8520;50.102;20.010;2023-08-08T12:43:14;3.60;;;3.40;;
16804;SDS011;8520;50.102;20.010;2023-08-08T12:45:44;3.63;;;3.20;;
16804;SDS011;8520;50.102;20.010;2023-08-08T12:48:12;3.58;;;3.38;;
16804;SDS011;8520;50.102;20.010;2023-08-08T12:50:40;2.92;;;2.58;;
16804;SDS011;8520;50.102;20.010;2023-08-08T12:53:08;4.53;;;4.22;;
16804;SDS011;8520;50.102;20.010;2023-08-08T12:55:36;3.50;;;3.20;;
16804;SDS011;8520;50.102;20.010;2023-08-08T12:58:07;3.67;;;3.47;;
16804;SDS011;8520;50.102;20.010;2023-08-08T13:00:35;3.80;;;3.60;;
16804;SDS011;8520;50.102;20.010;2023-08-08T13:03:04;3.75;;;3.55;;
16804;SDS011;8520;50.102;20.010;2023-08-08T13:05:32;3.00;;;2.80;;
16804;SDS011;8520;50.102;20.010;2023-08-08T13:08:00;3.38;;;3.17;;
16804;SDS011;8520;50.102;20.010;2023-08-08T13:10:28;3.60;;;3.40;;
16804;SDS011;8520;50.102;20.010;2023-08-08T13:12:57;3.30;;;3.10;;
16804;SDS011;8520;50.102;20.010;2023-08-08T13:15:26;3.38;;;3.17;;
16804;SDS011;8520;50.102;20.010;2023-08-08T13:17:54;3.90;;;3.70;;
16804;SDS011;8520;50.102;20.010;2023-08-08T13:20:22;3.30;;;3.10;;
16804;SDS011;8520;50.102;20.010;2023-08-08T13:22:50;3.35;;;3.10;;
16804;SDS011;8520;50.102;20.010;2023-08-08T13:25:18;3.30;;;3.10;;
16804;SDS011;8520;50.102;20.010;2023-08-08T13:27:46;4.15;;;3.92;;
16804;SDS011;8520;50.102;20.010;2023-08-08T13:30:14;3.30;;;3.10;;
16804;SDS011;8520;50.102;20.010;2023-08-08T13:32:44;3.70;;;3.42;;
16804;SDS011;8520;50.102;20.010;2023-08-08T13:35:12;3.50;;;3.30;;
16804;SDS011;8520;50.102;20.010;2023-08-08T13:37:40;2.90;;;2.78;;
16804;SDS011;8520;50.102;20.010;2023-08-08T13:40:08;3.15;;;2.95;;
16804;SDS011;8520;50.102;20.010;2023-08-08T13:42:36;2.80;;;2.70;;
16804;SDS011;8520;50.102;20.010;2023-08-08T13:45:05;3.72;;;3.28;;
16804;SDS011;8520;50.102;20.010;2023-08-08T13:47:33;3.30;;;3.10;;
16804;SDS011;8520;50.102;20.010;2023-08-08T13:50:03;2.65;;;2.53;;
16804;SDS011;8520;50.102;20.010;2023-08-08T13:52:31;3.90;;;3.70;;
16804;SDS011;8520;50.102;20.010;2023-08-08T13:55:00;4.60;;;4.30;;
16804;SDS011;8520;50.102;20.010;2023-08-08T13:57:28;3.47;;;3.17;;
16804;SDS011;8520;50.102;20.010;2023-08-08T13:59:56;3.13;;;2.92;;
16804;SDS011;8520;50.102;20.010;2023-08-08T14:02:24;3.78;;;3.40;;
16804;SDS011;8520;50.102;20.010;2023-08-08T14:04:52;3.20;;;3.10;;
16804;SDS011;8520;50.102;20.010;2023-08-08T14:07:21;2.90;;;2.80;;
16804;SDS011;8520;50.102;20.010;2023-08-08T14:09:49;3.55;;;3.35;;
16804;SDS011;8520;50.102;20.010;2023-08-08T14:12:17;3.60;;;3.40;;
16804;SDS011;8520;50.102;20.010;2023-08-08T14:14:45;5.78;;;3.20;;
16804;SDS011;8520;50.102;20.010;2023-08-08T14:17:13;3.20;;;2.92;;
16804;SDS011;8520;50.102;20.010;2023-08-08T14:19:41;3.45;;;3.25;;
16804;SDS011;8520;50.102;20.010;2023-08-08T14:22:09;2.88;;;2.60;;
16804;SDS011;8520;50.102;20.010;2023-08-08T14:24:38;3.25;;;2.85;;
16804;SDS011;8520;50.102;20.010;2023-08-08T14:27:06;3.72;;;3.45;;
16804;SDS011;8520;50.102;20.010;2023-08-08T14:29:34;3.70;;;3.45;;
16804;SDS011;8520;50.102;20.010;2023-08-08T14:32:02;4.30;;;2.88;;
16804;SDS011;8520;50.102;20.010;2023-08-08T14:34:30;2.53;;;2.33;;
16804;SDS011;8520;50.102;20.010;2023-08-08T14:36:59;5.80;;;2.80;;
16804;SDS011;8520;50.102;20.010;2023-08-08T14:39:27;3.45;;;3.25;;
16804;SDS011;8520;50.102;20.010;2023-08-08T14:41:57;3.10;;;2.90;;
16804;SDS011;8520;50.102;20.010;2023-08-08T14:44:25;2.92;;;2.83;;